createdAt,value
2022-12-16T00:00:07.329Z,24.27
2022-12-16T00:02:34.509Z,23.70
2022-12-16T00:05:01.700Z,27.27
2022-12-16T00:07:29.320Z,26.27
2022-12-16T00:09:56.393Z,27.63
2022-12-16T00:12:23.611Z,28.23
2022-12-16T00:14:50.685Z,26.20
2022-12-16T00:17:17.786Z,27.93
2022-12-16T00:19:44.848Z,27.47
2022-12-16T00:22:11.921Z,24.87
2022-12-16T00:24:39.063Z,24.40
2022-12-16T00:27:06.173Z,29.00
2022-12-16T00:29:33.272Z,27.37
2022-12-16T00:32:00.456Z,28.63
2022-12-16T00:34:27.633Z,26.00
2022-12-16T00:36:54.940Z,26.20
2022-12-16T00:39:22.467Z,26.97
2022-12-16T00:41:50.803Z,25.97
2022-12-16T00:44:19.083Z,26.13
2022-12-16T00:46:46.191Z,27.93
2022-12-16T00:49:13.311Z,23.87
2022-12-16T00:51:40.464Z,22.90
2022-12-16T00:54:07.555Z,27.23
2022-12-16T00:56:35.112Z,24.13
2022-12-16T00:59:02.188Z,26.27
2022-12-16T01:01:29.410Z,23.93
2022-12-16T01:03:58.023Z,23.03
2022-12-16T01:06:25.285Z,26.40
2022-12-16T01:08:52.439Z,25.13
2022-12-16T01:11:22.023Z,21.93
2022-12-16T01:13:52.593Z,29.80
2022-12-16T01:16:22.405Z,25.50
2022-12-16T01:18:49.796Z,25.30
2022-12-16T01:21:16.900Z,22.87
2022-12-16T01:23:43.998Z,24.20
2022-12-16T01:26:13.692Z,23.20
2022-12-16T01:28:40.811Z,24.47
2022-12-16T01:31:07.964Z,24.40
2022-12-16T01:33:35.610Z,24.53
2022-12-16T01:36:04.874Z,24.13
2022-12-16T01:38:32.252Z,22.67
2022-12-16T01:40:59.739Z,24.53
2022-12-16T01:43:28.899Z,24.37
2022-12-16T01:46:01.089Z,23.00
2022-12-16T01:48:28.170Z,23.13
2022-12-16T01:50:59.677Z,21.40
2022-12-16T01:53:26.856Z,21.67
2022-12-16T01:55:56.207Z,19.97
2022-12-16T01:58:25.723Z,20.23
2022-12-16T02:00:53.037Z,21.77
2022-12-16T02:03:22.109Z,20.13
2022-12-16T02:05:49.455Z,18.53
2022-12-16T02:08:17.827Z,17.53
2022-12-16T02:10:44.965Z,18.73
2022-12-16T02:13:18.140Z,18.53
2022-12-16T02:16:07.553Z,17.47
2022-12-16T02:18:46.598Z,16.37
2022-12-16T02:21:19.228Z,17.60
2022-12-16T02:24:05.088Z,16.00
2022-12-16T02:26:40.953Z,15.53
2022-12-16T02:29:26.343Z,15.27
2022-12-16T02:31:57.537Z,15.13
2022-12-16T02:34:32.928Z,15.50
2022-12-16T02:37:06.007Z,14.77
2022-12-16T02:39:38.514Z,13.63
2022-12-16T02:42:22.164Z,14.00
2022-12-16T02:44:54.016Z,11.23
2022-12-16T02:47:21.123Z,12.33
2022-12-16T02:49:49.985Z,12.00
2022-12-16T02:52:18.518Z,12.37
2022-12-16T02:54:46.038Z,12.30
2022-12-16T02:57:13.622Z,11.53
2022-12-16T02:59:49.953Z,10.93
2022-12-16T03:02:23.440Z,11.30
2022-12-16T03:04:53.617Z,9.67
2022-12-16T03:07:23.209Z,10.27
2022-12-16T03:09:50.846Z,8.83
2022-12-16T03:12:20.637Z,9.20
2022-12-16T03:14:49.063Z,9.70
2022-12-16T03:17:17.799Z,9.60
2022-12-16T03:19:48.274Z,8.90
2022-12-16T03:22:17.981Z,8.97
2022-12-16T03:24:45.217Z,8.03
2022-12-16T03:27:14.516Z,8.97
2022-12-16T03:29:53.951Z,8.13
2022-12-16T03:32:29.604Z,7.70
2022-12-16T03:35:06.226Z,6.67
2022-12-16T03:37:34.628Z,7.40
2022-12-16T03:40:04.047Z,6.90
2022-12-16T03:42:31.326Z,8.13
2022-12-16T03:44:58.634Z,7.33
2022-12-16T03:47:29.871Z,7.00
2022-12-16T03:49:56.970Z,7.27
2022-12-16T03:52:24.107Z,6.97
2022-12-16T03:54:51.173Z,8.10
2022-12-16T03:57:18.333Z,7.73
2022-12-16T03:59:45.520Z,7.40
2022-12-16T04:02:12.776Z,6.90
2022-12-16T04:04:40.014Z,7.07
2022-12-16T04:07:24.311Z,7.00
2022-12-16T04:09:52.288Z,7.33
2022-12-16T04:12:38.768Z,7.40
2022-12-16T04:15:25.507Z,6.80
2022-12-16T04:18:11.744Z,6.27
2022-12-16T04:20:59.250Z,7.10
2022-12-16T04:23:46.136Z,6.40
2022-12-16T04:26:13.395Z,6.37
2022-12-16T04:28:40.611Z,6.10
2022-12-16T04:31:07.886Z,6.67
2022-12-16T04:33:53.680Z,6.13
2022-12-16T04:36:39.607Z,6.50
2022-12-16T04:39:25.503Z,6.30
2022-12-16T04:42:11.901Z,6.33
2022-12-16T04:44:57.612Z,6.33
2022-12-16T04:47:43.514Z,6.30
2022-12-16T04:50:29.530Z,6.30
2022-12-16T04:53:15.317Z,5.47
2022-12-16T04:56:04.518Z,5.80
2022-12-16T04:58:50.706Z,5.50
2022-12-16T05:01:36.636Z,5.30
2022-12-16T05:04:22.385Z,5.97
2022-12-16T05:07:08.524Z,6.00
2022-12-16T05:09:54.367Z,5.37
2022-12-16T05:12:40.350Z,6.10
2022-12-16T05:15:26.285Z,5.70
2022-12-16T05:18:16.671Z,5.37
2022-12-16T05:21:02.536Z,5.93
2022-12-16T05:23:48.255Z,5.87
2022-12-16T05:26:34.097Z,4.90
2022-12-16T05:29:19.965Z,5.30
2022-12-16T05:32:05.754Z,5.30
2022-12-16T05:34:51.325Z,5.20
2022-12-16T05:37:36.842Z,5.00
2022-12-16T05:40:22.561Z,5.30
2022-12-16T05:43:12.087Z,5.20
2022-12-16T05:46:01.966Z,5.57
2022-12-16T05:48:48.044Z,5.13
2022-12-16T05:51:33.790Z,4.80
2022-12-16T05:54:19.365Z,4.80
2022-12-16T05:57:05.742Z,5.13
2022-12-16T05:59:51.631Z,4.50
2022-12-16T06:02:38.369Z,5.50
2022-12-16T06:05:24.700Z,4.87
2022-12-16T06:08:11.386Z,5.33
2022-12-16T06:10:57.303Z,4.50
2022-12-16T06:13:43.353Z,4.87
2022-12-16T06:16:29.365Z,5.10
2022-12-16T06:19:15.564Z,4.10
2022-12-16T06:22:01.385Z,4.50
2022-12-16T06:24:47.375Z,5.10
2022-12-16T06:27:33.278Z,4.37
2022-12-16T06:30:19.262Z,5.60
2022-12-16T06:33:05.254Z,5.13
2022-12-16T06:35:51.070Z,5.43
2022-12-16T06:38:37.250Z,5.97
2022-12-16T06:41:23.290Z,5.30
2022-12-16T06:44:09.133Z,4.93
2022-12-16T06:46:55.119Z,4.70
2022-12-16T06:49:41.030Z,5.60
2022-12-16T06:52:26.989Z,15.93
2022-12-16T06:55:13.066Z,19.57
2022-12-16T06:57:59.270Z,14.67
2022-12-16T07:00:45.293Z,13.27
2022-12-16T07:03:35.614Z,11.87
2022-12-16T07:06:21.945Z,13.67
2022-12-16T07:09:07.901Z,18.40
2022-12-16T07:11:53.837Z,14.03
2022-12-16T07:14:39.726Z,16.43
2022-12-16T07:17:25.598Z,20.10
2022-12-16T07:20:11.522Z,19.83
2022-12-16T07:23:05.594Z,15.20
2022-12-16T07:25:57.549Z,16.70
2022-12-16T07:28:43.566Z,22.33
2022-12-16T07:31:29.443Z,18.00
2022-12-16T07:34:15.105Z,22.00
2022-12-16T07:37:00.997Z,22.97
2022-12-16T07:39:54.324Z,20.57
2022-12-16T07:42:41.087Z,16.27
2022-12-16T07:45:27.277Z,21.30
2022-12-16T07:48:13.122Z,21.70
2022-12-16T07:50:59.430Z,20.17
2022-12-16T07:53:46.430Z,21.87
2022-12-16T07:56:32.265Z,19.83
2022-12-16T07:59:18.324Z,19.37
2022-12-16T08:02:04.433Z,20.43
2022-12-16T08:04:50.214Z,21.47
2022-12-16T08:07:36.676Z,18.20
2022-12-16T08:10:22.674Z,18.63
2022-12-16T08:13:08.674Z,15.13
2022-12-16T08:15:55.041Z,18.50
2022-12-16T08:18:41.894Z,17.50
2022-12-16T08:21:27.884Z,17.20
2022-12-16T08:24:13.815Z,14.63
2022-12-16T08:26:59.896Z,15.00
2022-12-16T08:29:45.992Z,13.03
2022-12-16T08:32:35.908Z,13.43
2022-12-16T08:35:21.915Z,13.73
2022-12-16T08:38:13.747Z,13.20
2022-12-16T08:41:03.904Z,12.03
2022-12-16T08:43:52.554Z,13.53
2022-12-16T08:46:38.469Z,12.30
2022-12-16T08:49:24.317Z,12.53
2022-12-16T08:52:10.253Z,14.83
2022-12-16T08:54:56.118Z,13.67
2022-12-16T08:57:42.597Z,14.77
2022-12-16T09:00:28.925Z,15.80
2022-12-16T09:03:15.534Z,17.43
2022-12-16T09:06:01.604Z,17.03
2022-12-16T09:08:47.686Z,18.43
2022-12-16T09:11:33.491Z,15.83
2022-12-16T09:14:19.476Z,17.50
2022-12-16T09:17:05.466Z,24.30
2022-12-16T09:19:51.412Z,20.90
2022-12-16T09:22:39.880Z,23.03
2022-12-16T09:25:25.853Z,20.77
2022-12-16T09:28:11.696Z,19.53
2022-12-16T09:30:57.540Z,20.60
2022-12-16T09:33:43.118Z,21.13
2022-12-16T09:36:29.040Z,19.77
2022-12-16T09:39:15.064Z,16.93
2022-12-16T09:42:04.663Z,16.93
2022-12-16T09:44:50.494Z,16.83
2022-12-16T09:47:39.769Z,17.20
2022-12-16T09:50:33.257Z,17.27
2022-12-16T09:53:23.363Z,16.73
2022-12-16T09:56:09.296Z,18.03
2022-12-16T09:58:58.262Z,14.97
2022-12-16T10:01:44.978Z,15.73
2022-12-16T10:04:30.870Z,15.60
2022-12-16T10:07:19.753Z,14.63
2022-12-16T10:10:05.588Z,17.47
2022-12-16T10:12:54.102Z,14.13
2022-12-16T10:15:50.312Z,14.50
2022-12-16T10:18:50.911Z,13.40
2022-12-16T10:21:40.462Z,13.23
2022-12-16T10:24:41.456Z,13.90
2022-12-16T10:27:34.754Z,13.50
2022-12-16T10:30:21.303Z,13.57
2022-12-16T10:33:08.278Z,12.53
2022-12-16T10:36:13.509Z,13.80
2022-12-16T10:39:01.386Z,13.97
2022-12-16T10:41:58.100Z,12.10
2022-12-16T10:45:07.500Z,12.30
2022-12-16T10:47:53.498Z,12.73
2022-12-16T10:50:39.192Z,11.83
2022-12-16T10:53:33.765Z,12.30
2022-12-16T10:56:34.980Z,12.80
2022-12-16T10:59:24.922Z,17.63
2022-12-16T11:02:16.401Z,17.00
2022-12-16T11:05:02.169Z,17.60
2022-12-16T11:08:08.327Z,15.60
2022-12-16T11:10:56.240Z,15.07
2022-12-16T11:13:50.978Z,13.80
2022-12-16T11:16:36.950Z,13.63
2022-12-16T11:19:23.215Z,14.40
2022-12-16T11:22:09.322Z,14.50
2022-12-16T11:24:55.248Z,14.40
2022-12-16T11:27:44.626Z,15.17
2022-12-16T11:30:33.138Z,12.43
2022-12-16T11:33:20.555Z,12.80
2022-12-16T11:36:09.037Z,11.07
2022-12-16T11:39:04.387Z,12.40
2022-12-16T11:41:53.300Z,12.57
2022-12-16T11:44:56.093Z,12.77
2022-12-16T11:47:55.398Z,12.40
2022-12-16T11:50:42.749Z,11.47
2022-12-16T11:53:37.693Z,12.97
2022-12-16T11:56:40.813Z,12.03
2022-12-16T11:59:40.323Z,10.60
2022-12-16T12:02:38.174Z,13.17
2022-12-16T12:05:23.898Z,11.63
2022-12-16T12:08:28.758Z,11.97
2022-12-16T12:11:43.364Z,11.40
2022-12-16T12:14:48.653Z,10.87
2022-12-16T12:17:44.624Z,10.83
2022-12-16T12:20:48.617Z,11.53
2022-12-16T12:23:40.881Z,11.10
2022-12-16T12:26:31.580Z,11.90
2022-12-16T12:29:27.200Z,10.70
2022-12-16T12:32:27.715Z,9.77
2022-12-16T12:35:25.846Z,10.33
2022-12-16T12:38:31.858Z,10.20
2022-12-16T12:41:25.937Z,10.40
2022-12-16T12:44:37.064Z,9.80
2022-12-16T12:47:35.638Z,10.30
2022-12-16T12:50:24.395Z,10.33
2022-12-16T12:53:33.540Z,9.93
2022-12-16T12:56:24.517Z,10.20
2022-12-16T12:59:11.389Z,9.63
2022-12-16T13:02:00.505Z,9.93
2022-12-16T13:04:46.954Z,9.27
2022-12-16T13:07:33.014Z,14.33
2022-12-16T13:10:33.666Z,12.73
2022-12-16T13:13:35.727Z,13.53
2022-12-16T13:16:23.039Z,13.70
2022-12-16T13:19:30.430Z,13.00
2022-12-16T13:22:15.964Z,14.57
2022-12-16T13:25:03.563Z,13.37
2022-12-16T13:27:50.359Z,16.27
2022-12-16T13:30:41.214Z,14.07
2022-12-16T13:33:43.864Z,18.10
2022-12-16T13:36:30.432Z,15.23
2022-12-16T13:39:30.433Z,16.07
2022-12-16T13:42:19.264Z,15.83
2022-12-16T13:45:04.817Z,14.90
2022-12-16T13:47:50.770Z,15.30
2022-12-16T13:51:09.127Z,16.80
2022-12-16T13:54:00.604Z,17.87
2022-12-16T13:57:01.917Z,17.07
2022-12-16T13:59:48.276Z,13.67
2022-12-16T14:02:58.196Z,13.57
2022-12-16T14:05:44.027Z,15.63
2022-12-16T14:08:44.779Z,13.40
2022-12-16T14:11:43.292Z,17.40
2022-12-16T14:14:51.648Z,15.70
2022-12-16T14:17:43.711Z,13.80
2022-12-16T14:20:40.321Z,13.20
2022-12-16T14:23:56.348Z,15.87
2022-12-16T14:26:43.237Z,12.53
2022-12-16T14:29:48.111Z,13.40
2022-12-16T14:32:40.985Z,13.20
2022-12-16T14:35:31.348Z,12.27
2022-12-16T14:38:17.396Z,11.90
2022-12-16T14:41:09.835Z,13.13
2022-12-16T14:43:55.867Z,11.73
2022-12-16T14:46:49.074Z,11.60
2022-12-16T14:49:41.155Z,11.47
2022-12-16T14:52:35.873Z,11.07
2022-12-16T14:55:31.168Z,12.23
2022-12-16T14:58:36.942Z,10.27
2022-12-16T15:01:31.792Z,13.00
2022-12-16T15:04:18.917Z,11.97
2022-12-16T15:07:06.857Z,12.03
2022-12-16T15:10:03.881Z,11.43
2022-12-16T15:12:52.025Z,11.50
2022-12-16T15:15:42.493Z,12.20
2022-12-16T15:18:35.112Z,11.50
2022-12-16T15:21:21.016Z,10.63
2022-12-16T15:24:06.782Z,13.47
2022-12-16T15:26:53.425Z,9.57
2022-12-16T15:29:47.858Z,11.37
2022-12-16T15:32:47.661Z,10.63
2022-12-16T15:35:45.197Z,10.57
2022-12-16T15:38:51.253Z,9.83
2022-12-16T15:41:40.200Z,11.43
2022-12-16T15:44:32.710Z,10.13
2022-12-16T15:47:18.623Z,9.33
2022-12-16T15:50:06.599Z,10.50
2022-12-16T15:52:58.205Z,9.17
2022-12-16T15:55:46.382Z,10.80
2022-12-16T15:58:34.833Z,8.40
2022-12-16T16:01:20.643Z,9.07
2022-12-16T16:04:10.611Z,8.87
2022-12-16T16:06:57.245Z,10.07
2022-12-16T16:09:44.760Z,9.70
2022-12-16T16:12:31.286Z,9.43
2022-12-16T16:15:17.307Z,9.73
2022-12-16T16:18:03.049Z,8.37
2022-12-16T16:20:48.968Z,10.03
2022-12-16T16:23:35.411Z,10.00
2022-12-16T16:26:21.552Z,10.07
2022-12-16T16:29:07.613Z,16.30
2022-12-16T16:31:53.531Z,10.70
2022-12-16T16:34:39.552Z,12.00
2022-12-16T16:37:31.230Z,14.57
2022-12-16T16:40:17.157Z,12.73
2022-12-16T16:43:03.088Z,12.90
2022-12-16T16:45:49.114Z,11.27
2022-12-16T16:48:36.133Z,10.20
2022-12-16T16:54:36.952Z,12.80
2022-12-16T16:57:22.988Z,11.00
2022-12-16T17:00:08.929Z,14.43
2022-12-16T17:02:54.936Z,11.97
2022-12-16T17:05:40.769Z,9.97
2022-12-16T17:08:26.868Z,11.20
2022-12-16T17:11:12.817Z,9.67
2022-12-16T17:13:58.720Z,10.00
2022-12-16T17:16:44.695Z,10.80
2022-12-16T17:19:30.674Z,10.90
2022-12-16T17:22:16.495Z,10.10
2022-12-16T17:25:02.358Z,9.50
2022-12-16T17:27:48.372Z,10.10
2022-12-16T17:30:35.935Z,10.57
2022-12-16T17:33:21.874Z,10.60
2022-12-16T17:36:08.168Z,9.30
2022-12-16T17:38:58.084Z,10.10
2022-12-16T17:41:44.097Z,9.10
2022-12-16T17:44:30.088Z,12.87
2022-12-16T17:47:16.056Z,9.37
2022-12-16T17:50:01.895Z,9.37
2022-12-16T17:52:47.799Z,9.23
2022-12-16T17:55:33.759Z,10.27
2022-12-16T17:58:19.709Z,10.40
2022-12-16T18:01:05.664Z,8.87
2022-12-16T18:03:51.733Z,10.10
2022-12-16T18:06:37.504Z,9.97
2022-12-16T18:09:23.726Z,9.40
2022-12-16T18:12:09.471Z,9.87
2022-12-16T18:14:55.393Z,9.70
2022-12-16T18:17:41.489Z,9.63
2022-12-16T18:20:27.421Z,9.83
2022-12-16T18:23:13.556Z,9.53
2022-12-16T18:25:59.530Z,9.20
2022-12-16T18:28:45.534Z,8.70
2022-12-16T18:31:32.022Z,10.30
2022-12-16T18:34:17.998Z,9.77
2022-12-16T18:37:04.053Z,9.50
2022-12-16T18:40:10.014Z,9.40
2022-12-16T18:42:55.983Z,9.80
2022-12-16T18:45:41.859Z,8.60
2022-12-16T18:48:28.415Z,9.10
2022-12-16T18:51:14.669Z,9.73
2022-12-16T18:54:00.217Z,9.07
2022-12-16T18:56:46.008Z,8.90
2022-12-16T18:59:31.930Z,8.67
2022-12-16T19:02:37.254Z,8.83
2022-12-16T19:05:23.068Z,7.97
2022-12-16T19:08:13.999Z,9.37
2022-12-16T19:10:59.775Z,7.50
2022-12-16T19:13:45.309Z,9.07
2022-12-16T19:16:31.140Z,9.93
2022-12-16T19:19:20.221Z,9.10
2022-12-16T19:22:07.005Z,8.97
2022-12-16T19:27:57.973Z,8.80
2022-12-16T19:30:43.855Z,9.07
2022-12-16T19:33:29.556Z,9.80
2022-12-16T19:36:16.290Z,10.33
2022-12-16T19:39:02.338Z,10.20
2022-12-16T19:41:48.371Z,8.40
2022-12-16T19:44:34.332Z,9.93
2022-12-16T19:47:20.382Z,9.27
2022-12-16T19:50:06.034Z,9.73
2022-12-16T19:52:51.995Z,9.83
2022-12-16T19:55:38.144Z,9.67
2022-12-16T19:58:23.894Z,10.37
2022-12-16T20:01:09.782Z,11.23
2022-12-16T20:03:56.687Z,11.00
2022-12-16T20:06:43.025Z,11.10
2022-12-16T20:09:29.023Z,11.37
2022-12-16T20:12:15.882Z,10.63
2022-12-16T20:15:01.764Z,11.00
2022-12-16T20:17:47.692Z,11.33
2022-12-16T20:20:33.654Z,10.40
2022-12-16T20:23:19.610Z,10.47
2022-12-16T20:26:13.176Z,11.50
2022-12-16T20:28:58.861Z,10.63
2022-12-16T20:31:44.689Z,11.63
2022-12-16T20:34:30.668Z,10.67
2022-12-16T20:37:16.773Z,12.10
2022-12-16T20:40:02.639Z,11.10
2022-12-16T20:42:48.669Z,9.87
2022-12-16T20:45:35.320Z,11.10
2022-12-16T20:48:21.165Z,11.70
2022-12-16T20:54:22.222Z,10.43
2022-12-16T20:57:12.503Z,11.40
2022-12-16T20:59:58.550Z,10.70
2022-12-16T21:02:44.492Z,11.90
2022-12-16T21:05:30.318Z,11.30
2022-12-16T21:08:16.273Z,10.83
2022-12-16T21:11:02.177Z,10.10
2022-12-16T21:13:48.841Z,10.87
2022-12-16T21:16:35.651Z,11.40
2022-12-16T21:19:21.548Z,10.53
2022-12-16T21:22:07.420Z,11.10
2022-12-16T21:24:53.435Z,11.93
2022-12-16T21:27:39.126Z,10.70
2022-12-16T21:30:25.192Z,11.70
2022-12-16T21:33:11.143Z,10.70
2022-12-16T21:35:57.036Z,11.67
2022-12-16T21:38:43.037Z,10.97
2022-12-16T21:41:28.869Z,11.47
2022-12-16T21:44:14.960Z,11.57
2022-12-16T21:47:00.802Z,12.30
2022-12-16T21:49:46.777Z,11.10
2022-12-16T21:52:32.704Z,10.77
2022-12-16T21:55:18.532Z,11.67
2022-12-16T21:58:04.356Z,10.93
2022-12-16T22:00:53.490Z,11.40
2022-12-16T22:03:46.086Z,11.23
2022-12-16T22:06:31.809Z,11.23
2022-12-16T22:09:17.579Z,11.30
2022-12-16T22:12:03.610Z,11.10
2022-12-16T22:14:49.410Z,11.77
2022-12-16T22:17:39.923Z,11.10
2022-12-16T22:20:26.374Z,10.43
2022-12-16T22:23:11.913Z,10.90
2022-12-16T22:25:57.397Z,10.30
2022-12-16T22:28:42.899Z,10.93
2022-12-16T22:31:28.219Z,10.53
2022-12-16T22:34:13.893Z,10.97
2022-12-16T22:36:19.996Z,9.27
2022-12-16T22:36:59.629Z,10.20
2022-12-16T22:39:45.410Z,9.83
2022-12-16T22:42:31.545Z,9.80
2022-12-16T22:45:17.067Z,12.70
2022-12-16T22:48:02.762Z,10.93
2022-12-16T22:50:51.799Z,11.47
2022-12-16T22:53:37.261Z,10.23
2022-12-16T22:56:23.190Z,10.50
2022-12-16T22:59:08.952Z,11.30
2022-12-16T23:01:54.833Z,9.57
2022-12-16T23:04:42.761Z,10.60
2022-12-16T23:07:28.411Z,10.63
2022-12-16T23:10:14.283Z,10.60
2022-12-16T23:13:00.155Z,10.07
2022-12-16T23:15:45.955Z,10.83
2022-12-16T23:18:32.017Z,10.03
2022-12-16T23:21:17.929Z,10.30
2022-12-16T23:24:03.783Z,9.63
2022-12-16T23:26:49.889Z,11.27
2022-12-16T23:29:35.782Z,10.00
2022-12-16T23:32:21.819Z,10.10
2022-12-16T23:35:07.841Z,10.53
2022-12-16T23:37:53.656Z,10.10
2022-12-16T23:40:42.177Z,10.40
2022-12-16T23:43:35.773Z,9.47
2022-12-16T23:46:21.746Z,10.60
2022-12-16T23:49:07.664Z,10.07
2022-12-16T23:51:53.551Z,11.30
2022-12-16T23:54:39.546Z,9.93
2022-12-16T23:57:25.426Z,10.10
